sensor_id;sensor_type;location;lat;lon;timestamp;pressure;altitude;pressure_sealevel;temperature;humidity
76024;BME280;64719;52.124;6.226;2023-06-22T00:02:00;102043.59;;;18.64;100.00
76024;BME280;64719;52.124;6.226;2023-06-22T00:04:27;102041.03;;;18.58;100.00
76024;BME280;64719;52.124;6.226;2023-06-22T00:06:53;102032.78;;;18.58;100.00
76024;BME280;64719;52.124;6.226;2023-06-22T00:09:20;102030.25;;;18.51;100.00
76024;BME280;64719;52.124;6.226;2023-06-22T00:11:47;102036.28;;;18.53;100.00
76024;BME280;64719;52.124;6.226;2023-06-22T00:14:13;102039.31;;;18.52;100.00
76024;BME280;64719;52.124;6.226;2023-06-22T00:16:41;102041.94;;;18.42;100.00
76024;BME280;64719;52.124;6.226;2023-06-22T00:19:08;102028.94;;;18.37;100.00
76024;BME280;64719;52.124;6.226;2023-06-22T00:21:37;102027.75;;;18.33;100.00
76024;BME280;64719;52.124;6.226;2023-06-22T00:24:04;102021.53;;;18.38;100.00
76024;BME280;64719;52.124;6.226;2023-06-22T00:26:31;102018.94;;;18.31;100.00
76024;BME280;64719;52.124;6.226;2023-06-22T00:28:58;102023.53;;;18.26;100.00
76024;BME280;64719;52.124;6.226;2023-06-22T00:31:24;102018.84;;;18.26;100.00
76024;BME280;64719;52.124;6.226;2023-06-22T00:33:52;102018.44;;;18.34;100.00
76024;BME280;64719;52.124;6.226;2023-06-22T00:36:18;102015.09;;;18.32;100.00
76024;BME280;64719;52.124;6.226;2023-06-22T00:38:45;102014.53;;;18.30;100.00
76024;BME280;64719;52.124;6.226;2023-06-22T00:41:11;102014.13;;;18.21;100.00
76024;BME280;64719;52.124;6.226;2023-06-22T00:43:38;102011.25;;;18.11;100.00
76024;BME280;64719;52.124;6.226;2023-06-22T00:46:06;101991.50;;;18.14;100.00
76024;BME280;64719;52.124;6.226;2023-06-22T00:48:32;102001.66;;;18.14;100.00
76024;BME280;64719;52.124;6.226;2023-06-22T00:51:01;102005.88;;;18.21;100.00
76024;BME280;64719;52.124;6.226;2023-06-22T00:53:27;102015.00;;;18.05;100.00
76024;BME280;64719;52.124;6.226;2023-06-22T00:55:54;102010.59;;;18.04;100.00
76024;BME280;64719;52.124;6.226;2023-06-22T00:58:25;102005.53;;;17.96;100.00
76024;BME280;64719;52.124;6.226;2023-06-22T01:00:51;102009.13;;;17.97;100.00
76024;BME280;64719;52.124;6.226;2023-06-22T01:03:18;102006.53;;;17.90;100.00
76024;BME280;64719;52.124;6.226;2023-06-22T01:05:46;102009.28;;;17.74;100.00
76024;BME280;64719;52.124;6.226;2023-06-22T01:08:27;102006.03;;;17.77;100.00
76024;BME280;64719;52.124;6.226;2023-06-22T01:11:01;102003.59;;;17.80;100.00
76024;BME280;64719;52.124;6.226;2023-06-22T01:13:36;102003.03;;;17.78;100.00
76024;BME280;64719;52.124;6.226;2023-06-22T01:16:07;102017.81;;;17.94;100.00
76024;BME280;64719;52.124;6.226;2023-06-22T01:18:36;102012.84;;;17.91;100.00
76024;BME280;64719;52.124;6.226;2023-06-22T01:21:04;102014.81;;;17.95;100.00
76024;BME280;64719;52.124;6.226;2023-06-22T01:23:50;102005.94;;;17.88;100.00
76024;BME280;64719;52.124;6.226;2023-06-22T01:26:22;102007.09;;;17.76;100.00
76024;BME280;64719;52.124;6.226;2023-06-22T01:28:55;102013.69;;;17.58;100.00
76024;BME280;64719;52.124;6.226;2023-06-22T01:31:24;102003.31;;;17.60;100.00
76024;BME280;64719;52.124;6.226;2023-06-22T01:33:53;102003.13;;;17.67;100.00
76024;BME280;64719;52.124;6.226;2023-06-22T01:36:21;102004.06;;;17.72;100.00
76024;BME280;64719;52.124;6.226;2023-06-22T01:38:49;101998.06;;;17.75;100.00
76024;BME280;64719;52.124;6.226;2023-06-22T01:41:16;102003.97;;;17.67;100.00
76024;BME280;64719;52.124;6.226;2023-06-22T01:43:43;101991.81;;;17.63;100.00
76024;BME280;64719;52.124;6.226;2023-06-22T01:46:11;101993.97;;;17.61;100.00
76024;BME280;64719;52.124;6.226;2023-06-22T01:48:39;102001.31;;;17.56;100.00
76024;BME280;64719;52.124;6.226;2023-06-22T01:51:06;101998.38;;;17.46;100.00
76024;BME280;64719;52.124;6.226;2023-06-22T01:53:33;102006.50;;;17.41;100.00
76024;BME280;64719;52.124;6.226;2023-06-22T01:55:59;101995.81;;;17.56;100.00
76024;BME280;64719;52.124;6.226;2023-06-22T01:58:27;101984.84;;;17.56;100.00
76024;BME280;64719;52.124;6.226;2023-06-22T02:00:58;101989.16;;;17.52;100.00
76024;BME280;64719;52.124;6.226;2023-06-22T02:03:30;101982.00;;;17.51;100.00
76024;BME280;64719;52.124;6.226;2023-06-22T02:06:01;101988.75;;;17.43;100.00
76024;BME280;64719;52.124;6.226;2023-06-22T02:08:31;101986.38;;;17.35;100.00
76024;BME280;64719;52.124;6.226;2023-06-22T02:10:59;101985.34;;;17.25;100.00
76024;BME280;64719;52.124;6.226;2023-06-22T02:13:26;101981.22;;;17.22;100.00
76024;BME280;64719;52.124;6.226;2023-06-22T02:15:54;101987.28;;;17.24;100.00
76024;BME280;64719;52.124;6.226;2023-06-22T02:18:20;101991.94;;;17.24;100.00
76024;BME280;64719;52.124;6.226;2023-06-22T02:20:48;102000.66;;;17.21;100.00
76024;BME280;64719;52.124;6.226;2023-06-22T02:23:15;101999.00;;;17.20;100.00
76024;BME280;64719;52.124;6.226;2023-06-22T02:25:42;102002.81;;;17.19;100.00
76024;BME280;64719;52.124;6.226;2023-06-22T02:28:10;101997.16;;;17.09;100.00
76024;BME280;64719;52.124;6.226;2023-06-22T02:30:36;101994.22;;;16.99;100.00
76024;BME280;64719;52.124;6.226;2023-06-22T02:33:03;101990.88;;;16.97;100.00
76024;BME280;64719;52.124;6.226;2023-06-22T02:35:30;101985.06;;;16.93;100.00
76024;BME280;64719;52.124;6.226;2023-06-22T02:37:58;101976.34;;;16.96;100.00
76024;BME280;64719;52.124;6.226;2023-06-22T02:40:26;101984.06;;;16.99;100.00
76024;BME280;64719;52.124;6.226;2023-06-22T02:42:52;101984.31;;;16.98;100.00
76024;BME280;64719;52.124;6.226;2023-06-22T02:45:19;101987.84;;;17.10;100.00
76024;BME280;64719;52.124;6.226;2023-06-22T02:47:46;101977.63;;;17.22;100.00
76024;BME280;64719;52.124;6.226;2023-06-22T02:50:13;101969.88;;;17.19;100.00
76024;BME280;64719;52.124;6.226;2023-06-22T02:52:40;101970.38;;;17.16;100.00
76024;BME280;64719;52.124;6.226;2023-06-22T02:55:08;101977.34;;;17.07;100.00
76024;BME280;64719;52.124;6.226;2023-06-22T02:57:35;101981.03;;;17.12;100.00
76024;BME280;64719;52.124;6.226;2023-06-22T03:00:03;101979.53;;;17.05;100.00
76024;BME280;64719;52.124;6.226;2023-06-22T03:02:39;101985.09;;;17.10;100.00
76024;BME280;64719;52.124;6.226;2023-06-22T03:05:06;101985.59;;;17.07;100.00
76024;BME280;64719;52.124;6.226;2023-06-22T03:07:39;101982.16;;;17.00;100.00
76024;BME280;64719;52.124;6.226;2023-06-22T03:10:08;101988.50;;;17.00;100.00
76024;BME280;64719;52.124;6.226;2023-06-22T03:12:35;101984.19;;;17.04;100.00
76024;BME280;64719;52.124;6.226;2023-06-22T03:15:02;101985.03;;;17.05;100.00
76024;BME280;64719;52.124;6.226;2023-06-22T03:17:29;101985.75;;;17.00;100.00
76024;BME280;64719;52.124;6.226;2023-06-22T03:19:56;101967.63;;;16.99;100.00
76024;BME280;64719;52.124;6.226;2023-06-22T03:22:22;101968.81;;;17.03;100.00
76024;BME280;64719;52.124;6.226;2023-06-22T03:24:49;101974.78;;;17.00;100.00
76024;BME280;64719;52.124;6.226;2023-06-22T03:27:17;101975.53;;;16.96;100.00
76024;BME280;64719;52.124;6.226;2023-06-22T03:29:44;101973.03;;;16.94;100.00
76024;BME280;64719;52.124;6.226;2023-06-22T03:32:11;101968.34;;;16.95;100.00
76024;BME280;64719;52.124;6.226;2023-06-22T03:34:37;101968.03;;;16.91;100.00
76024;BME280;64719;52.124;6.226;2023-06-22T03:37:04;101971.09;;;16.95;100.00
76024;BME280;64719;52.124;6.226;2023-06-22T03:39:31;101965.38;;;16.96;100.00
76024;BME280;64719;52.124;6.226;2023-06-22T03:41:58;101971.09;;;16.95;100.00
76024;BME280;64719;52.124;6.226;2023-06-22T03:44:26;101962.72;;;17.01;100.00
76024;BME280;64719;52.124;6.226;2023-06-22T03:46:52;101957.25;;;17.01;100.00
76024;BME280;64719;52.124;6.226;2023-06-22T03:49:19;101961.06;;;17.00;100.00
76024;BME280;64719;52.124;6.226;2023-06-22T03:51:45;101960.34;;;17.05;100.00
76024;BME280;64719;52.124;6.226;2023-06-22T03:54:12;101947.94;;;17.02;100.00
76024;BME280;64719;52.124;6.226;2023-06-22T03:56:38;101942.88;;;16.94;100.00
76024;BME280;64719;52.124;6.226;2023-06-22T03:59:05;101951.50;;;17.03;100.00
76024;BME280;64719;52.124;6.226;2023-06-22T04:01:33;101951.13;;;17.11;100.00
76024;BME280;64719;52.124;6.226;2023-06-22T04:03:59;101952.03;;;17.16;100.00
76024;BME280;64719;52.124;6.226;2023-06-22T04:06:26;101952.03;;;17.16;100.00
76024;BME280;64719;52.124;6.226;2023-06-22T04:08:52;101947.94;;;17.19;100.00
76024;BME280;64719;52.124;6.226;2023-06-22T04:11:19;101944.88;;;17.15;100.00
76024;BME280;64719;52.124;6.226;2023-06-22T04:13:46;101949.13;;;17.23;100.00
76024;BME280;64719;52.124;6.226;2023-06-22T04:16:13;101943.66;;;17.23;100.00
76024;BME280;64719;52.124;6.226;2023-06-22T04:18:41;101950.19;;;17.22;100.00
76024;BME280;64719;52.124;6.226;2023-06-22T04:21:08;101950.63;;;17.30;100.00
76024;BME280;64719;52.124;6.226;2023-06-22T04:23:34;101939.22;;;17.38;100.00
76024;BME280;64719;52.124;6.226;2023-06-22T04:26:01;101953.81;;;17.55;100.00
76024;BME280;64719;52.124;6.226;2023-06-22T04:28:27;101950.69;;;17.68;100.00
76024;BME280;64719;52.124;6.226;2023-06-22T04:30:54;101950.22;;;18.09;100.00
76024;BME280;64719;52.124;6.226;2023-06-22T04:33:23;101953.63;;;19.39;100.00
76024;BME280;64719;52.124;6.226;2023-06-22T04:35:51;101948.31;;;20.06;100.00
76024;BME280;64719;52.124;6.226;2023-06-22T04:38:18;101948.91;;;20.13;100.00
76024;BME280;64719;52.124;6.226;2023-06-22T04:40:46;101946.84;;;20.45;100.00
76024;BME280;64719;52.124;6.226;2023-06-22T04:43:13;101950.34;;;21.07;100.00
76024;BME280;64719;52.124;6.226;2023-06-22T04:45:40;101945.13;;;21.26;100.00
76024;BME280;64719;52.124;6.226;2023-06-22T04:48:06;101945.94;;;21.87;100.00
76024;BME280;64719;52.124;6.226;2023-06-22T04:50:33;101953.19;;;22.46;100.00
76024;BME280;64719;52.124;6.226;2023-06-22T04:53:01;101948.22;;;22.43;100.00
76024;BME280;64719;52.124;6.226;2023-06-22T04:55:30;101948.88;;;22.79;100.00
76024;BME280;64719;52.124;6.226;2023-06-22T04:57:57;101953.19;;;23.00;100.00
76024;BME280;64719;52.124;6.226;2023-06-22T05:00:30;101951.47;;;21.77;100.00
76024;BME280;64719;52.124;6.226;2023-06-22T05:02:57;101949.75;;;20.85;100.00
76024;BME280;64719;52.124;6.226;2023-06-22T05:05:24;101942.34;;;21.01;100.00
76024;BME280;64719;52.124;6.226;2023-06-22T05:07:52;101946.75;;;21.87;100.00
76024;BME280;64719;52.124;6.226;2023-06-22T05:10:21;101942.91;;;21.88;100.00
76024;BME280;64719;52.124;6.226;2023-06-22T05:12:48;101951.53;;;22.55;100.00
76024;BME280;64719;52.124;6.226;2023-06-22T05:15:14;101948.22;;;22.97;100.00
76024;BME280;64719;52.124;6.226;2023-06-22T05:17:41;101948.94;;;23.12;100.00
76024;BME280;64719;52.124;6.226;2023-06-22T05:20:09;101946.28;;;23.98;94.91
76024;BME280;64719;52.124;6.226;2023-06-22T05:22:36;101949.28;;;23.73;95.65
76024;BME280;64719;52.124;6.226;2023-06-22T05:25:04;101944.50;;;24.07;91.86
76024;BME280;64719;52.124;6.226;2023-06-22T05:27:32;101951.16;;;23.54;95.61
76024;BME280;64719;52.124;6.226;2023-06-22T05:29:59;101950.59;;;24.09;92.39
76024;BME280;64719;52.124;6.226;2023-06-22T05:32:26;101948.94;;;24.08;91.67
76024;BME280;64719;52.124;6.226;2023-06-22T05:34:52;101943.84;;;23.34;96.23
76024;BME280;64719;52.124;6.226;2023-06-22T05:37:19;101953.78;;;22.38;100.00
76024;BME280;64719;52.124;6.226;2023-06-22T05:39:46;101946.25;;;21.35;100.00
76024;BME280;64719;52.124;6.226;2023-06-22T05:42:12;101950.63;;;23.13;100.00
76024;BME280;64719;52.124;6.226;2023-06-22T05:44:40;101951.81;;;22.97;100.00
76024;BME280;64719;52.124;6.226;2023-06-22T05:47:07;101957.56;;;22.67;100.00
76024;BME280;64719;52.124;6.226;2023-06-22T05:49:33;101957.25;;;21.90;100.00
76024;BME280;64719;52.124;6.226;2023-06-22T05:52:00;101962.34;;;22.42;100.00
76024;BME280;64719;52.124;6.226;2023-06-22T05:54:27;101965.75;;;22.19;100.00
76024;BME280;64719;52.124;6.226;2023-06-22T05:56:54;101971.03;;;22.10;100.00
76024;BME280;64719;52.124;6.226;2023-06-22T05:59:20;101958.28;;;22.14;100.00
76024;BME280;64719;52.124;6.226;2023-06-22T06:01:48;101965.81;;;21.73;100.00
76024;BME280;64719;52.124;6.226;2023-06-22T06:04:16;101962.53;;;21.66;100.00
76024;BME280;64719;52.124;6.226;2023-06-22T06:06:43;101958.66;;;21.52;100.00
76024;BME280;64719;52.124;6.226;2023-06-22T06:09:10;101959.22;;;21.85;100.00
76024;BME280;64719;52.124;6.226;2023-06-22T06:11:37;101970.34;;;22.53;100.00
76024;BME280;64719;52.124;6.226;2023-06-22T06:14:03;101963.16;;;23.39;99.00
76024;BME280;64719;52.124;6.226;2023-06-22T06:16:30;101956.13;;;24.33;90.89
76024;BME280;64719;52.124;6.226;2023-06-22T06:18:58;101957.78;;;24.10;91.01
76024;BME280;64719;52.124;6.226;2023-06-22T06:21:24;101960.66;;;23.43;97.47
76024;BME280;64719;52.124;6.226;2023-06-22T06:23:51;101957.16;;;24.18;90.71
76024;BME280;64719;52.124;6.226;2023-06-22T06:26:18;101967.44;;;25.71;79.91
76024;BME280;64719;52.124;6.226;2023-06-22T06:28:53;101954.88;;;23.97;87.19
76024;BME280;64719;52.124;6.226;2023-06-22T06:31:20;101959.91;;;23.32;94.17
76024;BME280;64719;52.124;6.226;2023-06-22T06:33:46;101956.88;;;23.91;90.15
76024;BME280;64719;52.124;6.226;2023-06-22T06:36:14;101951.72;;;23.80;89.27
76024;BME280;64719;52.124;6.226;2023-06-22T06:38:41;101963.63;;;23.80;89.81
76024;BME280;64719;52.124;6.226;2023-06-22T06:41:08;101956.13;;;23.52;92.61
76024;BME280;64719;52.124;6.226;2023-06-22T06:43:34;101957.28;;;23.51;91.55
76024;BME280;64719;52.124;6.226;2023-06-22T06:46:01;101947.59;;;25.08;82.12
76024;BME280;64719;52.124;6.226;2023-06-22T06:48:28;101947.97;;;25.21;78.88
76024;BME280;64719;52.124;6.226;2023-06-22T06:50:55;101953.03;;;25.00;79.21
76024;BME280;64719;52.124;6.226;2023-06-22T06:53:23;101956.94;;;24.80;81.50
76024;BME280;64719;52.124;6.226;2023-06-22T06:55:49;101949.59;;;26.31;72.94
76024;BME280;64719;52.124;6.226;2023-06-22T06:58:16;101951.94;;;25.97;70.21
76024;BME280;64719;52.124;6.226;2023-06-22T07:00:43;101950.25;;;27.49;64.50
76024;BME280;64719;52.124;6.226;2023-06-22T07:03:09;101954.22;;;28.09;60.99
76024;BME280;64719;52.124;6.226;2023-06-22T07:05:36;101941.97;;;28.75;58.25
76024;BME280;64719;52.124;6.226;2023-06-22T07:08:03;101940.09;;;27.31;61.16
76024;BME280;64719;52.124;6.226;2023-06-22T07:10:31;101930.00;;;29.17;54.66
76024;BME280;64719;52.124;6.226;2023-06-22T07:12:57;101933.53;;;30.52;51.42
76024;BME280;64719;52.124;6.226;2023-06-22T07:15:24;101934.94;;;28.29;55.87
76024;BME280;64719;52.124;6.226;2023-06-22T07:17:50;101927.88;;;29.94;52.75
76024;BME280;64719;52.124;6.226;2023-06-22T07:20:17;101925.03;;;30.40;51.26
76024;BME280;64719;52.124;6.226;2023-06-22T07:22:45;101916.78;;;30.64;47.53
76024;BME280;64719;52.124;6.226;2023-06-22T07:25:12;101916.28;;;30.12;47.94
76024;BME280;64719;52.124;6.226;2023-06-22T07:27:44;101916.38;;;29.87;50.51
76024;BME280;64719;52.124;6.226;2023-06-22T07:30:12;101914.66;;;28.80;52.48
76024;BME280;64719;52.124;6.226;2023-06-22T07:32:39;101916.25;;;27.03;61.62
76024;BME280;64719;52.124;6.226;2023-06-22T07:35:06;101917.03;;;27.91;61.56
76024;BME280;64719;52.124;6.226;2023-06-22T07:37:33;101908.97;;;26.93;63.25
76024;BME280;64719;52.124;6.226;2023-06-22T07:40:00;101913.19;;;26.41;66.16
76024;BME280;64719;52.124;6.226;2023-06-22T07:42:29;101898.56;;;26.36;65.18
76024;BME280;64719;52.124;6.226;2023-06-22T07:44:59;101905.16;;;26.13;67.58
76024;BME280;64719;52.124;6.226;2023-06-22T07:47:27;101903.69;;;25.88;71.03
76024;BME280;64719;52.124;6.226;2023-06-22T07:49:57;101903.31;;;26.22;69.70
76024;BME280;64719;52.124;6.226;2023-06-22T07:52:26;101905.59;;;26.83;68.50
76024;BME280;64719;52.124;6.226;2023-06-22T07:54:53;101900.03;;;29.00;57.38
76024;BME280;64719;52.124;6.226;2023-06-22T07:57:20;101901.59;;;29.78;55.09
76024;BME280;64719;52.124;6.226;2023-06-22T07:59:46;101909.44;;;30.31;49.70
76024;BME280;64719;52.124;6.226;2023-06-22T08:02:14;101896.34;;;30.14;51.14
76024;BME280;64719;52.124;6.226;2023-06-22T08:04:41;101900.19;;;31.86;44.16
76024;BME280;64719;52.124;6.226;2023-06-22T08:07:07;101895.78;;;29.91;51.12
76024;BME280;64719;52.124;6.226;2023-06-22T08:09:35;101895.28;;;29.18;52.82
76024;BME280;64719;52.124;6.226;2023-06-22T08:12:02;101890.28;;;29.40;53.40
76024;BME280;64719;52.124;6.226;2023-06-22T08:14:29;101889.03;;;30.51;48.97
76024;BME280;64719;52.124;6.226;2023-06-22T08:16:56;101890.25;;;29.57;51.63
76024;BME280;64719;52.124;6.226;2023-06-22T08:19:24;101890.72;;;28.23;54.78
76024;BME280;64719;52.124;6.226;2023-06-22T08:21:50;101888.88;;;28.66;54.80
76024;BME280;64719;52.124;6.226;2023-06-22T08:24:17;101881.53;;;28.31;57.23
76024;BME280;64719;52.124;6.226;2023-06-22T08:26:43;101875.72;;;28.02;58.06
76024;BME280;64719;52.124;6.226;2023-06-22T08:29:10;101869.34;;;27.79;58.59
76024;BME280;64719;52.124;6.226;2023-06-22T08:31:37;101868.41;;;27.53;60.57
76024;BME280;64719;52.124;6.226;2023-06-22T08:34:03;101856.28;;;28.53;57.95
76024;BME280;64719;52.124;6.226;2023-06-22T08:36:31;101849.28;;;27.99;57.00
76024;BME280;64719;52.124;6.226;2023-06-22T08:39:00;101848.44;;;27.90;59.02
76024;BME280;64719;52.124;6.226;2023-06-22T08:41:27;101845.19;;;28.22;58.51
76024;BME280;64719;52.124;6.226;2023-06-22T08:43:54;101841.03;;;27.94;58.32
76024;BME280;64719;52.124;6.226;2023-06-22T08:46:21;101832.44;;;28.98;53.36
76024;BME280;64719;52.124;6.226;2023-06-22T08:48:55;101833.09;;;28.44;56.27
76024;BME280;64719;52.124;6.226;2023-06-22T08:51:23;101834.66;;;29.64;53.19
76024;BME280;64719;52.124;6.226;2023-06-22T08:53:51;101828.06;;;30.68;48.66
76024;BME280;64719;52.124;6.226;2023-06-22T08:56:17;101825.06;;;29.02;52.57
76024;BME280;64719;52.124;6.226;2023-06-22T08:58:44;101833.88;;;29.30;51.96
76024;BME280;64719;52.124;6.226;2023-06-22T09:01:11;101838.09;;;29.53;53.37
76024;BME280;64719;52.124;6.226;2023-06-22T09:03:37;101834.75;;;28.45;55.68
76024;BME280;64719;52.124;6.226;2023-06-22T09:06:04;101829.66;;;27.82;59.53
76024;BME280;64719;52.124;6.226;2023-06-22T09:08:30;101825.03;;;28.42;57.47
76024;BME280;64719;52.124;6.226;2023-06-22T09:10:58;101831.06;;;29.84;52.39
76024;BME280;64719;52.124;6.226;2023-06-22T09:13:25;101827.31;;;32.53;43.00
76024;BME280;64719;52.124;6.226;2023-06-22T09:15:51;101826.38;;;33.91;39.58
76024;BME280;64719;52.124;6.226;2023-06-22T09:18:18;101826.38;;;33.60;40.36
76024;BME280;64719;52.124;6.226;2023-06-22T09:20:45;101829.06;;;32.97;41.33
76024;BME280;64719;52.124;6.226;2023-06-22T09:23:11;101825.41;;;31.94;42.55
76024;BME280;64719;52.124;6.226;2023-06-22T09:25:37;101828.19;;;29.72;47.17
76024;BME280;64719;52.124;6.226;2023-06-22T09:28:06;101814.09;;;29.52;50.04
76024;BME280;64719;52.124;6.226;2023-06-22T09:30:33;101813.59;;;29.87;50.20
76024;BME280;64719;52.124;6.226;2023-06-22T09:33:00;101808.91;;;29.16;49.98
76024;BME280;64719;52.124;6.226;2023-06-22T09:35:26;101810.47;;;28.63;55.96
76024;BME280;64719;52.124;6.226;2023-06-22T09:37:53;101820.41;;;28.12;55.59
76024;BME280;64719;52.124;6.226;2023-06-22T09:40:19;101820.00;;;27.88;57.11
76024;BME280;64719;52.124;6.226;2023-06-22T09:42:46;101814.53;;;27.83;56.68
76024;BME280;64719;52.124;6.226;2023-06-22T09:45:14;101811.69;;;27.05;58.10
76024;BME280;64719;52.124;6.226;2023-06-22T09:47:40;101803.41;;;27.44;59.02
76024;BME280;64719;52.124;6.226;2023-06-22T09:50:08;101797.19;;;27.17;58.53
76024;BME280;64719;52.124;6.226;2023-06-22T09:52:34;101798.16;;;27.21;60.15
76024;BME280;64719;52.124;6.226;2023-06-22T09:55:01;101802.50;;;27.27;60.99
76024;BME280;64719;52.124;6.226;2023-06-22T09:57:29;101804.38;;;27.18;61.18
76024;BME280;64719;52.124;6.226;2023-06-22T09:59:55;101804.34;;;27.40;59.09
76024;BME280;64719;52.124;6.226;2023-06-22T10:02:23;101806.97;;;27.14;60.32
76024;BME280;64719;52.124;6.226;2023-06-22T10:04:50;101805.94;;;26.79;61.67
76024;BME280;64719;52.124;6.226;2023-06-22T10:07:16;101804.72;;;26.72;62.93
76024;BME280;64719;52.124;6.226;2023-06-22T10:09:43;101811.88;;;27.09;63.71
76024;BME280;64719;52.124;6.226;2023-06-22T10:12:09;101798.97;;;26.91;63.53
76024;BME280;64719;52.124;6.226;2023-06-22T10:14:36;101807.81;;;26.70;62.73
76024;BME280;64719;52.124;6.226;2023-06-22T10:17:02;101804.31;;;26.29;62.42
76024;BME280;64719;52.124;6.226;2023-06-22T10:19:33;101806.44;;;26.10;63.31
76024;BME280;64719;52.124;6.226;2023-06-22T10:22:02;101801.41;;;25.72;63.90
76024;BME280;64719;52.124;6.226;2023-06-22T10:24:28;101803.34;;;25.58;65.51
76024;BME280;64719;52.124;6.226;2023-06-22T10:26:55;101799.34;;;25.50;66.47
76024;BME280;64719;52.124;6.226;2023-06-22T10:29:21;101805.72;;;25.78;67.21
76024;BME280;64719;52.124;6.226;2023-06-22T10:31:48;101806.75;;;25.68;66.55
76024;BME280;64719;52.124;6.226;2023-06-22T10:34:14;101804.50;;;25.70;65.99
76024;BME280;64719;52.124;6.226;2023-06-22T10:36:42;101803.75;;;25.65;66.49
76024;BME280;64719;52.124;6.226;2023-06-22T10:39:11;101794.50;;;25.69;66.02
76024;BME280;64719;52.124;6.226;2023-06-22T10:41:38;101788.63;;;25.71;67.59
76024;BME280;64719;52.124;6.226;2023-06-22T10:44:04;101800.25;;;25.86;67.46
76024;BME280;64719;52.124;6.226;2023-06-22T10:46:31;101793.78;;;25.77;66.08
76024;BME280;64719;52.124;6.226;2023-06-22T10:48:57;101784.72;;;25.85;66.76
76024;BME280;64719;52.124;6.226;2023-06-22T10:51:24;101784.41;;;26.00;67.35
76024;BME280;64719;52.124;6.226;2023-06-22T10:53:52;101784.41;;;25.87;66.22
76024;BME280;64719;52.124;6.226;2023-06-22T10:56:18;101786.84;;;26.15;65.95
76024;BME280;64719;52.124;6.226;2023-06-22T10:58:45;101781.19;;;26.07;64.13
76024;BME280;64719;52.124;6.226;2023-06-22T11:01:12;101784.75;;;26.21;64.14
76024;BME280;64719;52.124;6.226;2023-06-22T11:03:39;101787.41;;;26.39;65.70
76024;BME280;64719;52.124;6.226;2023-06-22T11:06:06;101781.47;;;26.19;64.75
76024;BME280;64719;52.124;6.226;2023-06-22T11:08:32;101776.69;;;26.33;64.43
76024;BME280;64719;52.124;6.226;2023-06-22T11:11:00;101780.78;;;26.13;65.41
76024;BME280;64719;52.124;6.226;2023-06-22T11:13:27;101779.19;;;26.21;65.91
76024;BME280;64719;52.124;6.226;2023-06-22T11:15:53;101766.44;;;26.20;66.76
76024;BME280;64719;52.124;6.226;2023-06-22T11:18:20;101766.38;;;26.33;67.74
76024;BME280;64719;52.124;6.226;2023-06-22T11:20:48;101765.72;;;26.14;67.32
76024;BME280;64719;52.124;6.226;2023-06-22T11:23:14;101760.06;;;26.06;68.06
76024;BME280;64719;52.124;6.226;2023-06-22T11:25:41;101763.38;;;25.94;70.36
76024;BME280;64719;52.124;6.226;2023-06-22T11:28:09;101759.97;;;25.97;71.67
76024;BME280;64719;52.124;6.226;2023-06-22T11:30:36;101765.97;;;25.77;72.12
76024;BME280;64719;52.124;6.226;2023-06-22T11:33:02;101758.97;;;25.66;74.59
76024;BME280;64719;52.124;6.226;2023-06-22T11:35:29;101755.16;;;25.62;70.59
76024;BME280;64719;52.124;6.226;2023-06-22T11:37:55;101745.78;;;25.72;72.81
76024;BME280;64719;52.124;6.226;2023-06-22T11:40:23;101736.09;;;25.56;69.58
76024;BME280;64719;52.124;6.226;2023-06-22T11:42:50;101741.25;;;25.62;67.92
76024;BME280;64719;52.124;6.226;2023-06-22T11:45:18;101736.09;;;25.42;68.92
76024;BME280;64719;52.124;6.226;2023-06-22T11:47:45;101733.94;;;25.53;70.83
76024;BME280;64719;52.124;6.226;2023-06-22T11:50:12;101736.41;;;25.68;71.29
76024;BME280;64719;52.124;6.226;2023-06-22T11:52:39;101734.34;;;25.46;70.93
76024;BME280;64719;52.124;6.226;2023-06-22T11:55:06;101735.59;;;25.40;71.83
76024;BME280;64719;52.124;6.226;2023-06-22T11:57:34;101734.94;;;25.30;73.61
76024;BME280;64719;52.124;6.226;2023-06-22T12:00:01;101738.44;;;25.08;74.40
76024;BME280;64719;52.124;6.226;2023-06-22T12:02:32;101727.94;;;25.05;75.86
76024;BME280;64719;52.124;6.226;2023-06-22T12:04:59;101729.84;;;24.91;77.41
76024;BME280;64719;52.124;6.226;2023-06-22T12:07:25;101732.81;;;24.81;77.79
76024;BME280;64719;52.124;6.226;2023-06-22T12:09:52;101734.25;;;24.78;80.98
76024;BME280;64719;52.124;6.226;2023-06-22T12:12:19;101741.16;;;24.62;78.54
76024;BME280;64719;52.124;6.226;2023-06-22T12:14:45;101740.72;;;24.74;79.16
76024;BME280;64719;52.124;6.226;2023-06-22T12:17:12;101741.16;;;24.81;79.30
76024;BME280;64719;52.124;6.226;2023-06-22T12:19:40;101738.38;;;24.81;78.38
76024;BME280;64719;52.124;6.226;2023-06-22T12:22:06;101743.72;;;24.77;80.88
76024;BME280;64719;52.124;6.226;2023-06-22T12:24:33;101736.59;;;24.53;87.21
76024;BME280;64719;52.124;6.226;2023-06-22T12:26:59;101741.66;;;24.32;90.06
76024;BME280;64719;52.124;6.226;2023-06-22T12:29:28;101743.81;;;23.98;100.00
76024;BME280;64719;52.124;6.226;2023-06-22T12:31:55;101743.28;;;23.54;100.00
76024;BME280;64719;52.124;6.226;2023-06-22T12:34:22;101740.50;;;23.30;100.00
76024;BME280;64719;52.124;6.226;2023-06-22T12:36:50;101740.19;;;23.08;100.00
76024;BME280;64719;52.124;6.226;2023-06-22T12:39:17;101742.69;;;23.05;100.00
76024;BME280;64719;52.124;6.226;2023-06-22T12:41:44;101748.78;;;23.07;100.00
76024;BME280;64719;52.124;6.226;2023-06-22T12:44:10;101749.66;;;23.02;100.00
76024;BME280;64719;52.124;6.226;2023-06-22T12:46:37;101757.00;;;22.88;100.00